»·PEaware :: DAL1666 KPHX-KONT

DAL1666 :: KPHX-KONT

FLIGHT INFORMATION

Flight Status: Arrived
Operator:
Delta Air Lines
More flights by this operator :: More flights under this callsign
Pilot: Nehseem A. (13724)
Aircraft: MCDONNELL-DOUGLAS MD-88
(MD88)
More flights by this aircraft type
Origin: KPHX Phoenix Sky Harbor Intl
United States
Destination: KONT Ontario Intl
United States
More flights between these airports :: More routes between these airports
Route: +BXK4 PSP SETER5
File this flight plan on PilotEdge
Remarks:
Altitude:
(Current/Filed)
28,000ft
Speed:
(Current/Filed)
456kts
Departed: 19-Sep-17 11:38 AM
Arrived: 19-Sep-17 12:35 PM
Distance/Time
Traveled:
281nm/0:56
Distance/Time
To Go:
Arrived

Flight Plot

Page will automatically refresh every two minutes.

Flight plan parsing failed; only flown route is shown


Map Options




Map Legend


Flown Route
Filed Route
Departure Airport
Arrival Airport
Navaid (VOR, NDB)
Fix

Horizontal Profiles

Position Reports

Time Latitude Longitude Heading Altitude Ground
Speed
19-Sep-17 11:16 33.433693 -112.016486 179 1140ft 0kts
19-Sep-17 11:17 33.433693 -112.016486 179 1140ft 0kts
19-Sep-17 11:18 33.433693 -112.016486 179 1140ft 0kts
19-Sep-17 11:19 33.433693 -112.016486 179 1140ft 0kts
19-Sep-17 11:20 33.433693 -112.016486 179 1140ft 0kts
19-Sep-17 11:21 33.433693 -112.016486 179 1140ft 0kts
19-Sep-17 11:22 33.433693 -112.016486 179 1140ft 0kts
19-Sep-17 11:23 33.433693 -112.016486 179 1140ft 0kts
19-Sep-17 11:24 33.433693 -112.016485 179 1140ft 0kts
19-Sep-17 11:25 33.433693 -112.016485 179 1140ft 0kts
19-Sep-17 11:26 33.433693 -112.016485 179 1140ft 0kts
19-Sep-17 11:27 33.433693 -112.016485 179 1140ft 0kts
19-Sep-17 11:28 33.433693 -112.016486 179 1140ft 0kts
19-Sep-17 11:29 33.433693 -112.016486 179 1140ft 0kts
19-Sep-17 11:30 33.433693 -112.016486 179 1140ft 0kts
19-Sep-17 11:31 33.433693 -112.016485 179 1140ft 0kts
19-Sep-17 11:32 33.433693 -112.016486 179 1140ft 0kts
19-Sep-17 11:33 33.433693 -112.016485 179 1140ft 0kts
19-Sep-17 11:34 33.433693 -112.016486 179 1140ft 0kts
19-Sep-17 11:35 33.433302 -112.016473 177 1140ft 4kts
19-Sep-17 11:36 33.432353 -112.015009 149 1140ft 7kts
19-Sep-17 11:37 33.432151 -112.009326 89 1140ft 18kts
19-Sep-17 11:38 33.432144 -112.004608 90 1140ft 14kts
19-Sep-17 11:39 33.432138 -111.997354 91 1140ft 31kts
19-Sep-17 11:40 33.432107 -111.993822 108 1140ft 0kts
19-Sep-17 11:41 33.431429 -111.993501 176 1140ft 9kts
19-Sep-17 11:42 33.431055 -112.011889 269 1140ft 148kts
19-Sep-17 11:43 33.427780 -112.067332 246 2845ft 178kts
19-Sep-17 11:44 33.412585 -112.127047 251 4731ft 215kts
19-Sep-17 11:45 33.393603 -112.201758 248 7557ft 250kts
19-Sep-17 11:46 33.394151 -112.284911 287 10984ft 261kts
19-Sep-17 11:47 33.424810 -112.372868 288 13633ft 286kts
19-Sep-17 11:48 33.436566 -112.467927 271 15476ft 318kts
19-Sep-17 11:49 33.446256 -112.577160 274 18084ft 324kts
19-Sep-17 11:50 33.448742 -112.682319 269 20122ft 335kts
19-Sep-17 11:51 33.452405 -112.794524 271 22235ft 340kts
19-Sep-17 11:52 33.467191 -112.906398 283 24058ft 346kts
19-Sep-17 11:53 33.490222 -113.018858 282 25768ft 353kts
19-Sep-17 11:54 33.512767 -113.135139 282 27413ft 367kts
19-Sep-17 11:55 33.535809 -113.255965 282 27964ft 384kts
19-Sep-17 11:56 33.556099 -113.363285 282 27972ft 407kts
19-Sep-17 11:57 33.585710 -113.521324 282 27950ft 421kts
19-Sep-17 11:58 33.610839 -113.656555 281 27918ft 419kts
19-Sep-17 11:59 33.635448 -113.792526 282 27900ft 419kts
19-Sep-17 12:00 33.660349 -113.928707 282 27899ft 419kts
19-Sep-17 12:01 33.685083 -114.064968 282 27898ft 419kts
19-Sep-17 12:02 33.709755 -114.201882 282 27897ft 419kts
19-Sep-17 12:03 33.734200 -114.338555 282 27896ft 419kts
19-Sep-17 12:04 33.758417 -114.474966 282 27896ft 419kts
19-Sep-17 12:05 33.781570 -114.611936 275 27881ft 419kts
19-Sep-17 12:06 33.786868 -114.748725 272 27901ft 419kts
19-Sep-17 12:07 33.791140 -114.865168 272 27900ft 419kts
19-Sep-17 12:08 33.796355 -115.005373 273 27899ft 419kts
19-Sep-17 12:09 33.801899 -115.168081 273 27897ft 420kts
19-Sep-17 12:10 33.805557 -115.284711 273 27868ft 420kts
19-Sep-17 12:11 33.809960 -115.423782 273 27846ft 420kts
19-Sep-17 12:12 33.813710 -115.540339 273 27840ft 420kts
19-Sep-17 12:13 33.818257 -115.679476 273 27341ft 424kts
19-Sep-17 12:14 33.823121 -115.819940 273 25672ft 422kts
19-Sep-17 12:15 33.840385 -115.959022 280 24015ft 426kts
19-Sep-17 12:16 33.853911 -116.100998 274 21133ft 430kts
19-Sep-17 12:17 33.861358 -116.241640 273 18180ft 401kts
19-Sep-17 12:18 33.867215 -116.367895 273 15642ft 349kts
19-Sep-17 12:19 33.871906 -116.473443 273 15884ft 317kts
19-Sep-17 12:20 33.876887 -116.588038 273 14875ft 357kts
19-Sep-17 12:21 33.881356 -116.699927 272 13881ft 318kts
19-Sep-17 12:22 33.885571 -116.808332 272 14024ft 369kts
19-Sep-17 12:23 33.875069 -116.922609 251 13946ft 312kts
19-Sep-17 12:24 33.885746 -117.010527 281 13945ft 246kts
19-Sep-17 12:25 33.908354 -117.086760 291 12326ft 272kts
19-Sep-17 12:26 33.937889 -117.173405 291 10059ft 303kts
19-Sep-17 12:27 33.968491 -117.260344 303 7911ft 297kts
19-Sep-17 12:28 34.036479 -117.271961 7 6322ft 281kts
19-Sep-17 12:29 34.074608 -117.323013 272 5020ft 237kts
19-Sep-17 12:30 34.063145 -117.394180 232 3899ft 207kts
19-Sep-17 12:31 34.020843 -117.423096 155 4152ft 246kts
19-Sep-17 12:32 34.008331 -117.338590 50 3931ft 290kts
19-Sep-17 12:33 34.064199 -117.342849 286 3895ft 219kts
19-Sep-17 12:34 34.073743 -117.411585 275 3107ft 175kts
19-Sep-17 12:35 34.087372 -117.465660 288 2744ft 199kts
19-Sep-17 12:36 34.075205 -117.529881 212 3100ft 206kts
19-Sep-17 12:37 34.056409 -117.571038 263 1154ft 143kts
19-Sep-17 12:38 34.055042 -117.604082 294 949ft 43kts
19-Sep-17 12:39 34.056552 -117.606337 333 949ft 15kts
19-Sep-17 12:40 34.058004 -117.605480 85 949ft 1kts
19-Sep-17 12:41 34.058556 -117.599706 13 949ft 15kts
19-Sep-17 12:42 34.059944 -117.598910 0 949ft 0kts
19-Sep-17 12:43 34.059944 -117.598910 0 949ft 0kts
19-Sep-17 12:44 34.059944 -117.598910 0 949ft 0kts
19-Sep-17 12:45 34.059944 -117.598910 0 949ft 0kts

Navigation Log

Ident Type
Flight plan parsing failed, navigation log unavailable